Murphy's Hourly Summary for Thursday, March 16, 2017
Hour Temp
(f)
RH
(%)
Solar Rad.
(MJ/m2)
Rainfall
(in)
Wind
(mph)
3/16/2017 12:00 AM 53 64 0 0 3.94
3/16/2017 1:00 AM 52 64 0 0 3.88
3/16/2017 2:00 AM 51 68 0 0 3.66
3/16/2017 3:00 AM 50 72 0 0 3.37
3/16/2017 4:00 AM 50 74 0 0 3.91
3/16/2017 5:00 AM 51 80 0 0 6.54
3/16/2017 6:00 AM 53 84 0 0 6.38
3/16/2017 7:00 AM 54 88 0 0 5.62
3/16/2017 8:00 AM 55 89 0.01 0 5.51
3/16/2017 9:00 AM 55 89 0.08 0 5.05
3/16/2017 10:00 AM 56 88 0.28 0 5
3/16/2017 11:00 AM 57 85 0.52 0 5.25
3/16/2017 12:00 PM 58 82 0.56 0 5.51
3/16/2017 1:00 PM 59 79 0.68 0 5.49
3/16/2017 2:00 PM 62 75 0.85 0 5.81
3/16/2017 3:00 PM 64 72 0.79 0 6.32
3/16/2017 4:00 PM 65 72 0.66 0 6.69
3/16/2017 5:00 PM 67 67 0.91 0 6.99
3/16/2017 6:00 PM 70 66 0.8 0 7.79
3/16/2017 7:00 PM 70 65 0.33 0 6.51
3/16/2017 8:00 PM 70 66 0.05 0 6.34
3/16/2017 9:00 PM 68 70 0 0 6.38
3/16/2017 10:00 PM 67 72 0 0 5.73
3/16/2017 11:00 PM 65 78 0 0 5.46
Data Summary 59 75 6.52 0.00 5.55